Time;durP1;ratioP1;P1;durP2;ratioP2;P2;SDS_P1;SDS_P2;PMS_P1;PMS_P2;Temp;Humidity;BMP_temperature;BMP_pressure;BME280_temperature;BME280_humidity;BME280_pressure;Samples;Min_cycle;Max_cycle;Signal;HPM_P1;HPM_P2
2021/10/26 00:02:28;;;;;;;51.92;20.55;;;;;;;;;;8258747;28;20368;-70
2021/10/26 00:06:33;;;;;;;49.50;19.35;;;;;;;;;;8236300;28;20372;-70
2021/10/26 00:10:39;;;;;;;47.88;20.27;;;;;;;;;;8225506;28;20068;-70
2021/10/26 00:14:44;;;;;;;55.15;20.73;;;;;;;;;;8224648;28;20647;-69
2021/10/26 00:18:49;;;;;;;60.55;22.83;;;;;;;;;;8207917;28;20593;-70
2021/10/26 00:22:54;;;;;;;59.63;21.13;;;;;;;;;;8207853;28;20365;-69
2021/10/26 00:27:00;;;;;;;54.05;20.27;;;;;;;;;;8201050;28;20096;-72
2021/10/26 00:31:05;;;;;;;56.67;21.58;;;;;;;;;;8207636;28;20379;-70
2021/10/26 00:35:11;;;;;;;65.90;21.17;;;;;;;;;;8226856;28;20453;-70
2021/10/26 00:39:16;;;;;;;61.40;23.65;;;;;;;;;;8224736;28;20354;-70
2021/10/26 00:43:21;;;;;;;58.67;21.40;;;;;;;;;;8208405;28;20560;-69
2021/10/26 00:47:28;;;;;;;58.72;20.85;;;;;;;;;;8207519;28;20452;-69
2021/10/26 00:51:33;;;;;;;57.88;20.80;;;;;;;;;;8207387;28;20337;-70
2021/10/26 00:55:39;;;;;;;55.08;21.23;;;;;;;;;;8207736;28;20057;-70
2021/10/26 00:59:44;;;;;;;69.82;21.65;;;;;;;;;;8207341;28;20469;-70
2021/10/26 01:03:49;;;;;;;49.80;19.23;;;;;;;;;;8207381;28;20396;-70
2021/10/26 01:07:56;;;;;;;65.65;22.60;;;;;;;;;;8205861;28;20453;-71
2021/10/26 01:12:03;;;;;;;56.65;20.17;;;;;;;;;;8206798;28;20358;-69
2021/10/26 01:16:09;;;;;;;59.97;20.15;;;;;;;;;;8190975;28;20485;-71
2021/10/26 01:20:15;;;;;;;128.25;38.13;;;;;;;;;;8191115;28;20472;-69
2021/10/26 01:24:21;;;;;;;62.40;22.83;;;;;;;;;;8189813;28;20493;-69
2021/10/26 01:28:25;;;;;;;84.18;25.63;;;;;;;;;;8190165;28;20091;-69
2021/10/26 01:32:30;;;;;;;62.63;19.63;;;;;;;;;;8196590;28;20465;-70
2021/10/26 01:37:00;;;;;;;50.45;19.00;;;;;;;;;;8199751;28;20601;-70
2021/10/26 01:41:07;;;;;;;56.92;18.33;;;;;;;;;;8213929;28;20068;-70
2021/10/26 01:45:13;;;;;;;54.90;19.15;;;;;;;;;;8196154;28;20057;-70
2021/10/26 01:49:20;;;;;;;46.03;17.52;;;;;;;;;;8181132;28;20069;-70
2021/10/26 01:53:27;;;;;;;51.53;17.30;;;;;;;;;;8196679;28;20465;-70
2021/10/26 01:57:33;;;;;;;53.42;17.95;;;;;;;;;;8197678;28;20369;-70
2021/10/26 02:01:52;;;;;;;52.78;20.00;;;;;;;;;;8199429;28;20453;-70
2021/10/26 02:06:06;;;;;;;52.35;20.05;;;;;;;;;;8195493;28;20342;-70
2021/10/26 02:10:12;;;;;;;61.40;21.05;;;;;;;;;;8195177;28;20373;-69
2021/10/26 02:14:20;;;;;;;72.03;25.60;;;;;;;;;;8199228;28;20481;-69
2021/10/26 02:18:24;;;;;;;83.65;29.73;;;;;;;;;;8211612;28;20050;-69
2021/10/26 02:22:33;;;;;;;54.95;20.38;;;;;;;;;;8227777;28;20360;-70
2021/10/26 02:26:38;;;;;;;53.85;19.50;;;;;;;;;;8227561;28;20476;-70
2021/10/26 02:30:44;;;;;;;58.45;19.00;;;;;;;;;;8226260;28;20476;-70
2021/10/26 02:34:50;;;;;;;56.75;18.88;;;;;;;;;;8178428;28;20453;-71
2021/10/26 02:38:55;;;;;;;55.63;20.40;;;;;;;;;;8210164;28;20072;-70
2021/10/26 02:43:00;;;;;;;68.93;25.42;;;;;;;;;;8225830;28;20468;-71
2021/10/26 02:47:07;;;;;;;49.97;16.58;;;;;;;;;;8210404;28;20441;-70
2021/10/26 02:51:12;;;;;;;45.72;15.77;;;;;;;;;;8226250;28;20071;-71
2021/10/26 02:55:18;;;;;;;40.05;15.65;;;;;;;;;;8228549;28;20045;-69
2021/10/26 02:59:24;;;;;;;58.83;18.05;;;;;;;;;;8226109;28;20361;-70
2021/10/26 03:03:30;;;;;;;47.67;15.23;;;;;;;;;;8226094;28;20470;-69
2021/10/26 03:07:41;;;;;;;41.25;14.00;;;;;;;;;;8209985;28;20067;-70
2021/10/26 03:11:46;;;;;;;47.70;17.35;;;;;;;;;;8229517;28;20344;-70
2021/10/26 03:15:53;;;;;;;48.00;16.25;;;;;;;;;;8210120;28;20445;-69
2021/10/26 03:19:59;;;;;;;29.58;13.57;;;;;;;;;;8209474;28;20372;-70
2021/10/26 03:24:06;;;;;;;50.30;18.45;;;;;;;;;;8209923;28;20072;-70
2021/10/26 03:28:12;;;;;;;44.05;16.35;;;;;;;;;;8193878;28;20033;-70
2021/10/26 03:32:18;;;;;;;34.60;12.90;;;;;;;;;;8208526;28;20358;-70
2021/10/26 03:37:04;;;;;;;39.75;12.48;;;;;;;;;;8157250;28;20068;-69
2021/10/26 03:41:10;;;;;;;35.97;13.93;;;;;;;;;;8174296;28;20500;-69
2021/10/26 03:45:16;;;;;;;37.88;12.52;;;;;;;;;;8226262;28;20059;-69
2021/10/26 03:49:21;;;;;;;84.13;29.45;;;;;;;;;;8225047;28;20067;-69
2021/10/26 03:53:28;;;;;;;52.88;21.38;;;;;;;;;;8208443;28;20511;-69
2021/10/26 03:57:35;;;;;;;43.72;15.82;;;;;;;;;;8169911;28;20064;-69
2021/10/26 04:01:40;;;;;;;32.60;12.57;;;;;;;;;;8208260;28;20346;-69
2021/10/26 04:05:49;;;;;;;29.20;11.43;;;;;;;;;;8208602;28;20452;-69
2021/10/26 04:10:01;;;;;;;38.15;14.23;;;;;;;;;;8209089;28;20053;-70
2021/10/26 04:14:12;;;;;;;43.28;14.80;;;;;;;;;;8207886;28;20326;-69
2021/10/26 04:18:20;;;;;;;48.10;18.35;;;;;;;;;;8225493;28;20472;-70
2021/10/26 04:22:27;;;;;;;;;;;;;;;;;;8228167;28;20350;-69
2021/10/26 04:26:32;;;;;;;32.03;13.18;;;;;;;;;;8225262;28;20325;-69
2021/10/26 04:30:38;;;;;;;26.75;13.10;;;;;;;;;;8223121;28;20468;-70
2021/10/26 04:34:46;;;;;;;33.15;12.20;;;;;;;;;;8206676;28;20360;-70
2021/10/26 04:38:51;;;;;;;42.15;14.32;;;;;;;;;;8223098;28;20384;-69
2021/10/26 04:42:59;;;;;;;43.70;14.05;;;;;;;;;;8207988;28;20371;-69
2021/10/26 04:47:04;;;;;;;38.55;13.30;;;;;;;;;;8207057;28;20383;-69
2021/10/26 04:51:09;;;;;;;42.47;14.55;;;;;;;;;;8207085;28;20041;-70
2021/10/26 04:55:19;;;;;;;44.42;15.98;;;;;;;;;;8207427;28;20468;-69
2021/10/26 04:59:31;;;;;;;48.72;19.27;;;;;;;;;;8225072;28;20467;-69
2021/10/26 05:03:39;;;;;;;49.63;19.40;;;;;;;;;;8209391;28;20464;-70
2021/10/26 05:07:47;;;;;;;44.00;16.95;;;;;;;;;;8213990;28;20507;-71
2021/10/26 05:11:52;;;;;;;64.32;22.25;;;;;;;;;;8212795;28;20461;-69
2021/10/26 05:15:58;;;;;;;52.97;21.77;;;;;;;;;;8145946;28;20403;-71
2021/10/26 05:20:09;;;;;;;42.25;16.77;;;;;;;;;;8162862;28;20452;-69
2021/10/26 05:24:44;;;;;;;54.65;19.40;;;;;;;;;;8202534;28;20429;-70
2021/10/26 05:29:00;;;;;;;52.03;19.30;;;;;;;;;;8198000;28;20089;-70
2021/10/26 05:33:09;;;;;;;47.85;19.27;;;;;;;;;;8212777;28;20477;-69
2021/10/26 05:37:14;;;;;;;50.47;18.88;;;;;;;;;;8214709;28;20068;-69
2021/10/26 05:41:20;;;;;;;61.58;22.88;;;;;;;;;;8227996;28;20352;-70
2021/10/26 05:45:25;;;;;;;76.22;26.00;;;;;;;;;;8230417;28;20356;-69
2021/10/26 05:49:31;;;;;;;81.20;27.90;;;;;;;;;;8229214;28;20100;-69
2021/10/26 05:53:36;;;;;;;69.20;27.38;;;;;;;;;;8196764;28;20591;-70
2021/10/26 05:57:42;;;;;;;67.88;27.13;;;;;;;;;;8212318;28;20469;-69
2021/10/26 06:01:54;;;;;;;49.08;20.13;;;;;;;;;;8211006;28;20360;-70
2021/10/26 06:06:00;;;;;;;54.08;21.25;;;;;;;;;;8211592;28;20371;-69
2021/10/26 06:10:08;;;;;;;104.10;35.60;;;;;;;;;;8212295;28;20054;-69
2021/10/26 06:14:19;;;;;;;348.63;102.13;;;;;;;;;;8226627;28;20403;-69
2021/10/26 06:18:28;;;;;;;283.33;88.80;;;;;;;;;;8195947;28;20385;-70
2021/10/26 06:22:35;;;;;;;202.88;61.17;;;;;;;;;;8226855;28;20368;-70
2021/10/26 06:26:41;;;;;;;142.88;43.58;;;;;;;;;;8211275;28;20071;-69
2021/10/26 06:30:48;;;;;;;110.40;37.10;;;;;;;;;;8210770;28;20737;-69
2021/10/26 06:34:56;;;;;;;99.53;32.78;;;;;;;;;;8195936;28;20618;-70
2021/10/26 06:39:02;;;;;;;103.82;34.05;;;;;;;;;;8211540;28;20457;-70
2021/10/26 06:43:09;;;;;;;129.23;38.50;;;;;;;;;;8210503;28;20053;-70
2021/10/26 06:47:32;;;;;;;93.55;31.35;;;;;;;;;;8229517;28;20063;-71
2021/10/26 06:51:57;;;;;;;160.43;50.05;;;;;;;;;;8228581;28;20476;-70
2021/10/26 06:56:22;;;;;;;183.18;60.10;;;;;;;;;;8228061;28;20441;-70
2021/10/26 07:00:46;;;;;;;162.30;57.50;;;;;;;;;;8227449;28;20348;-70
2021/10/26 07:05:26;;;;;;;155.60;58.85;;;;;;;;;;8183948;28;20464;-71
2021/10/26 07:10:03;;;;;;;150.18;57.58;;;;;;;;;;8206062;28;20476;-71
2021/10/26 07:14:11;;;;;;;132.18;51.97;;;;;;;;;;8209945;28;20449;-72
2021/10/26 07:18:21;;;;;;;120.43;45.47;;;;;;;;;;8225352;28;20367;-71
2021/10/26 07:22:28;;;;;;;102.32;37.92;;;;;;;;;;8210987;28;20417;-72
2021/10/26 07:26:34;;;;;;;84.15;35.47;;;;;;;;;;8226597;28;20369;-71
2021/10/26 07:30:44;;;;;;;82.20;35.03;;;;;;;;;;8224808;28;20338;-71
2021/10/26 07:34:50;;;;;;;86.03;32.83;;;;;;;;;;8224846;28;20346;-73
2021/10/26 07:39:01;;;;;;;71.88;30.02;;;;;;;;;;8208916;28;20435;-73
2021/10/26 07:43:06;;;;;;;85.30;28.00;;;;;;;;;;8210693;28;20038;-73
2021/10/26 07:47:30;;;;;;;67.70;26.25;;;;;;;;;;8227646;28;20372;-72
2021/10/26 07:51:37;;;;;;;55.80;21.55;;;;;;;;;;8209203;28;20072;-74
2021/10/26 07:55:42;;;;;;;54.30;21.92;;;;;;;;;;8225572;28;20037;-73
2021/10/26 07:59:48;;;;;;;52.78;21.33;;;;;;;;;;8173193;28;20511;-73
2021/10/26 08:03:55;;;;;;;47.63;18.60;;;;;;;;;;8193214;28;20334;-74
2021/10/26 08:08:00;;;;;;;51.13;18.38;;;;;;;;;;8224104;28;20483;-73
2021/10/26 08:12:06;;;;;;;40.70;17.85;;;;;;;;;;8224370;28;20365;-73
2021/10/26 08:16:12;;;;;;;39.55;17.52;;;;;;;;;;8191845;28;20072;-74
2021/10/26 08:20:18;;;;;;;34.80;16.17;;;;;;;;;;8191669;28;20380;-74
2021/10/26 08:24:28;;;;;;;48.42;19.85;;;;;;;;;;8207283;28;20446;-74
2021/10/26 08:28:34;;;;;;;27.08;13.43;;;;;;;;;;8208621;28;20042;-74
2021/10/26 08:32:50;;;;;;;52.58;22.77;;;;;;;;;;8192192;28;20392;-74
2021/10/26 08:37:00;;;;;;;31.45;12.88;;;;;;;;;;8207846;28;20453;-73
2021/10/26 08:41:07;;;;;;;29.35;13.40;;;;;;;;;;8175435;28;20491;-75
2021/10/26 08:45:13;;;;;;;25.60;11.98;;;;;;;;;;8175380;28;20479;-74
2021/10/26 08:49:19;;;;;;;31.85;12.52;;;;;;;;;;8207964;28;20458;-73
2021/10/26 08:53:45;;;;;;;28.05;12.05;;;;;;;;;;8193151;28;20367;-75
2021/10/26 08:57:50;;;;;;;29.40;12.15;;;;;;;;;;8193168;28;20487;-74
2021/10/26 09:02:18;;;;;;;;;;;;;;;;;;8192510;28;20092;-74
2021/10/26 09:06:25;;;;;;;28.88;12.95;;;;;;;;;;8207517;28;20325;-72
2021/10/26 09:10:32;;;;;;;27.80;12.02;;;;;;;;;;8207388;28;20360;-72
2021/10/26 09:19:45;;;;;;;24.65;11.82;;;;;;;;;;8223603;28;20345;-74
2021/10/26 09:24:02;;;;;;;;;;;;;;;;;;8208546;28;20495;-74
2021/10/26 09:28:18;;;;;;;27.38;11.32;;;;;;;;;;8206673;28;20321;-71
2021/10/26 09:32:35;;;;;;;31.65;11.65;;;;;;;;;;8207353;28;20499;-72
2021/10/26 09:36:42;;;;;;;25.88;11.20;;;;;;;;;;8223031;28;20460;-72
2021/10/26 09:40:48;;;;;;;26.67;11.13;;;;;;;;;;8205892;28;20349;-72
2021/10/26 09:45:02;;;;;;;24.85;10.02;;;;;;;;;;8223871;28;20463;-70
2021/10/26 09:49:29;;;;;;;18.85;7.68;;;;;;;;;;8224024;28;20342;-71
2021/10/26 09:53:58;;;;;;;24.90;7.90;;;;;;;;;;8229548;28;20479;-73
2021/10/26 09:58:06;;;;;;;21.38;9.82;;;;;;;;;;8230526;28;20073;-72
2021/10/26 10:02:21;;;;;;;17.48;6.97;;;;;;;;;;8231779;28;20068;-72
2021/10/26 10:06:52;;;;;;;13.90;6.38;;;;;;;;;;8199776;28;20068;-72
2021/10/26 10:11:20;;;;;;;10.80;5.45;;;;;;;;;;8229044;28;20076;-73
2021/10/26 10:15:26;;;;;;;10.80;5.13;;;;;;;;;;8228776;28;20076;-73
2021/10/26 10:19:35;;;;;;;10.98;5.13;;;;;;;;;;8229717;28;20045;-72
2021/10/26 10:23:43;;;;;;;;;;;;;;;;;;8211831;28;20068;-71
2021/10/26 10:27:50;;;;;;;13.45;5.68;;;;;;;;;;8229658;28;20336;-69
2021/10/26 10:31:56;;;;;;;14.20;4.85;;;;;;;;;;8211591;28;20464;-72
2021/10/26 10:36:04;;;;;;;12.20;6.78;;;;;;;;;;8211866;28;20033;-72
2021/10/26 10:40:11;;;;;;;14.00;6.93;;;;;;;;;;8228026;28;20467;-71
2021/10/26 10:44:32;;;;;;;11.82;5.38;;;;;;;;;;8227091;28;20556;-69
2021/10/26 10:48:39;;;;;;;11.48;5.80;;;;;;;;;;8228106;28;20346;-71
2021/10/26 10:52:45;;;;;;;15.47;5.30;;;;;;;;;;8228677;28;20076;-71
2021/10/26 10:57:36;;;;;;;18.73;6.20;;;;;;;;;;8227891;28;20705;-72
2021/10/26 11:01:43;;;;;;;13.30;5.15;;;;;;;;;;8209899;28;20345;-69
2021/10/26 11:05:48;;;;;;;14.02;5.18;;;;;;;;;;8209515;28;20408;-69
2021/10/26 11:09:53;;;;;;;19.80;8.18;;;;;;;;;;8227095;28;20491;-70
2021/10/26 11:14:20;;;;;;;14.27;7.43;;;;;;;;;;8210283;28;20361;-71
2021/10/26 11:18:44;;;;;;;11.60;5.88;;;;;;;;;;8210167;28;20346;-72
2021/10/26 11:23:09;;;;;;;9.60;4.60;;;;;;;;;;8226511;28;20372;-70
2021/10/26 11:27:36;;;;;;;9.52;4.65;;;;;;;;;;8194112;28;20330;-70
2021/10/26 11:31:47;;;;;;;10.23;4.88;;;;;;;;;;8225888;28;20342;-72
2021/10/26 11:36:02;;;;;;;12.02;5.55;;;;;;;;;;8209733;28;20469;-69
2021/10/26 11:40:08;;;;;;;10.25;5.07;;;;;;;;;;8210038;28;20365;-71
2021/10/26 11:44:30;;;;;;;8.10;4.03;;;;;;;;;;8212158;28;20519;-70
2021/10/26 11:48:48;;;;;;;8.63;4.50;;;;;;;;;;8226388;28;20472;-70
2021/10/26 11:52:53;;;;;;;13.68;4.50;;;;;;;;;;8225331;28;20368;-71
2021/10/26 11:57:02;;;;;;;13.73;5.97;;;;;;;;;;8209118;28;20471;-71
2021/10/26 12:01:10;;;;;;;25.50;11.25;;;;;;;;;;8208316;28;20107;-70
2021/10/26 12:05:22;;;;;;;18.73;9.98;;;;;;;;;;8208774;28;20354;-70
2021/10/26 12:09:45;;;;;;;15.30;7.18;;;;;;;;;;8208616;28;20067;-71
2021/10/26 12:13:50;;;;;;;14.20;5.15;;;;;;;;;;8208461;28;20416;-70
2021/10/26 12:17:56;;;;;;;17.73;7.13;;;;;;;;;;8191526;28;20354;-71
2021/10/26 12:22:34;;;;;;;16.08;7.30;;;;;;;;;;8226896;28;20412;-71
2021/10/26 12:26:39;;;;;;;19.63;7.20;;;;;;;;;;8192717;28;20472;-70
2021/10/26 12:30:47;;;;;;;16.15;7.28;;;;;;;;;;8206939;28;20400;-70
2021/10/26 12:34:52;;;;;;;13.02;6.20;;;;;;;;;;8224111;28;20076;-71
2021/10/26 12:39:04;;;;;;;12.20;4.95;;;;;;;;;;8208193;28;20500;-72
2021/10/26 12:43:11;;;;;;;11.63;5.60;;;;;;;;;;8224804;28;20476;-70
2021/10/26 12:47:16;;;;;;;10.82;4.70;;;;;;;;;;8224915;28;20495;-70
2021/10/26 12:51:27;;;;;;;21.83;7.20;;;;;;;;;;8225678;28;20350;-71
2021/10/26 12:55:55;;;;;;;11.45;4.40;;;;;;;;;;8208454;28;20388;-71
2021/10/26 13:00:23;;;;;;;29.08;9.95;;;;;;;;;;8207722;28;20049;-71
2021/10/26 13:04:28;;;;;;;17.13;6.63;;;;;;;;;;8226946;28;20437;-71
2021/10/26 13:08:34;;;;;;;15.60;5.43;;;;;;;;;;8206754;28;20364;-72
2021/10/26 13:12:41;;;;;;;9.40;4.05;;;;;;;;;;8207476;28;20441;-71
2021/10/26 13:16:50;;;;;;;40.85;19.25;;;;;;;;;;8223326;28;20495;-71
2021/10/26 13:20:57;;;;;;;10.45;6.85;;;;;;;;;;8207960;28;20468;-71
2021/10/26 13:25:02;;;;;;;14.68;7.00;;;;;;;;;;8209852;28;20467;-70
2021/10/26 13:29:07;;;;;;;13.15;5.97;;;;;;;;;;8230312;28;20460;-71
2021/10/26 13:33:13;;;;;;;17.80;6.75;;;;;;;;;;8229048;28;20453;-70
2021/10/26 13:37:20;;;;;;;16.38;6.47;;;;;;;;;;8213695;28;20429;-71
2021/10/26 13:41:25;;;;;;;13.38;6.18;;;;;;;;;;8230413;28;20467;-69
2021/10/26 13:45:31;;;;;;;14.70;7.65;;;;;;;;;;8214314;28;20071;-72
2021/10/26 13:49:38;;;;;;;15.88;8.70;;;;;;;;;;8231647;28;20053;-70
2021/10/26 13:53:45;;;;;;;16.73;6.67;;;;;;;;;;8230351;28;20479;-71
2021/10/26 13:57:50;;;;;;;21.77;9.00;;;;;;;;;;8212155;28;20498;-69
2021/10/26 14:01:56;;;;;;;29.38;10.02;;;;;;;;;;8212274;28;20089;-69
2021/10/26 14:06:03;;;;;;;22.43;9.97;;;;;;;;;;8230071;28;20045;-71
2021/10/26 14:10:11;;;;;;;23.25;10.50;;;;;;;;;;8229221;28;20815;-70
2021/10/26 14:14:17;;;;;;;26.08;11.02;;;;;;;;;;8211632;28;20483;-71
2021/10/26 14:18:20;;;;;;;30.17;13.18;;;;;;;;;;8229164;28;20050;-71
2021/10/26 14:22:26;;;;;;;38.13;18.15;;;;;;;;;;8229050;28;20375;-70
2021/10/26 14:26:31;;;;;;;31.45;11.82;;;;;;;;;;8229207;28;20372;-71
2021/10/26 14:30:39;;;;;;;11.05;5.95;;;;;;;;;;8229093;28;20580;-69
2021/10/26 14:34:48;;;;;;;18.48;8.27;;;;;;;;;;8229078;28;20565;-71
2021/10/26 14:38:57;;;;;;;18.25;8.38;;;;;;;;;;8228208;28;20481;-71
2021/10/26 14:56:11;;;;;;;34.60;14.35;;;;;;;;;;8227397;28;20076;-70
2021/10/26 15:00:16;;;;;;;57.85;21.42;;;;;;;;;;8173517;28;20376;-69
2021/10/26 15:04:22;;;;;;;37.00;15.20;;;;;;;;;;8222653;28;20392;-70
2021/10/26 15:08:33;;;;;;;39.92;17.05;;;;;;;;;;8210965;28;20475;-70
2021/10/26 15:12:43;;;;;;;;;;;;;;;;;;8230887;28;20380;-69
2021/10/26 15:16:50;;;;;;;58.90;23.88;;;;;;;;;;8226851;28;20256;-70
2021/10/26 15:20:55;;;;;;;72.05;29.27;;;;;;;;;;8228276;28;20346;-69
2021/10/26 15:33:57;;;;;;;16.92;8.65;;;;;;;;;;8189584;28;20360;-70
2021/10/26 15:38:02;;;;;;;15.38;7.45;;;;;;;;;;8226426;28;20384;-69
2021/10/26 15:42:10;;;;;;;16.30;8.45;;;;;;;;;;8224596;28;20469;-69
2021/10/26 15:46:17;;;;;;;19.70;7.68;;;;;;;;;;8209191;28;20457;-70
2021/10/26 15:50:22;;;;;;;23.77;10.40;;;;;;;;;;8225121;28;20357;-71
2021/10/26 15:54:27;;;;;;;20.98;9.18;;;;;;;;;;8208732;28;20045;-69
2021/10/26 15:58:34;;;;;;;18.05;9.50;;;;;;;;;;8225373;28;20447;-70
2021/10/26 16:02:41;;;;;;;35.58;13.85;;;;;;;;;;8209141;28;20049;-70
2021/10/26 16:06:48;;;;;;;49.78;16.20;;;;;;;;;;8208710;28;20352;-70
2021/10/26 16:10:58;;;;;;;59.90;23.70;;;;;;;;;;8225285;28;20368;-71
2021/10/26 16:15:13;;;;;;;67.35;24.33;;;;;;;;;;8226519;28;20473;-69
2021/10/26 16:19:18;;;;;;;85.15;32.50;;;;;;;;;;8210412;28;20452;-69
2021/10/26 16:23:26;;;;;;;96.53;35.35;;;;;;;;;;8225909;28;20499;-69
2021/10/26 16:27:32;;;;;;;104.20;38.50;;;;;;;;;;8192157;28;20356;-69
2021/10/26 16:31:39;;;;;;;120.57;42.22;;;;;;;;;;8206769;28;20456;-69
2021/10/26 16:35:44;;;;;;;113.82;43.22;;;;;;;;;;8196465;28;20816;-68
2021/10/26 16:39:53;;;;;;;114.63;42.13;;;;;;;;;;8195713;28;20535;-68
2021/10/26 16:44:07;;;;;;;106.55;39.95;;;;;;;;;;8207329;28;20049;-69
2021/10/26 16:48:14;;;;;;;95.32;37.60;;;;;;;;;;8208538;28;20480;-70
2021/10/26 16:52:40;;;;;;;97.10;35.60;;;;;;;;;;8210335;28;20063;-69
2021/10/26 16:56:45;;;;;;;111.80;39.40;;;;;;;;;;8207618;28;20460;-70
2021/10/26 17:00:52;;;;;;;103.57;37.13;;;;;;;;;;8228418;28;20392;-70
2021/10/26 17:05:06;;;;;;;91.57;37.78;;;;;;;;;;8232101;28;20058;-70
2021/10/26 17:09:11;;;;;;;99.93;41.67;;;;;;;;;;8234208;28;20049;-72
2021/10/26 17:13:16;;;;;;;104.60;40.05;;;;;;;;;;8231051;28;20481;-70
2021/10/26 17:17:21;;;;;;;106.55;39.25;;;;;;;;;;8195994;28;20528;-72
2021/10/26 17:21:26;;;;;;;94.57;37.92;;;;;;;;;;8204337;28;20453;-69
2021/10/26 17:25:31;;;;;;;104.05;40.33;;;;;;;;;;8199316;28;20064;-70
2021/10/26 17:29:41;;;;;;;101.57;42.05;;;;;;;;;;8198693;28;20046;-70
2021/10/26 17:33:46;;;;;;;105.95;38.10;;;;;;;;;;8197829;28;20449;-71
2021/10/26 17:37:51;;;;;;;92.50;34.33;;;;;;;;;;8196525;28;20487;-70
2021/10/26 17:41:57;;;;;;;119.32;41.55;;;;;;;;;;8198708;28;20461;-70
2021/10/26 17:46:02;;;;;;;131.80;42.90;;;;;;;;;;8200548;28;20072;-70
2021/10/26 17:50:08;;;;;;;130.95;44.42;;;;;;;;;;8181592;28;20365;-71
2021/10/26 17:54:15;;;;;;;140.97;46.70;;;;;;;;;;8197111;28;20544;-70
2021/10/26 17:58:21;;;;;;;227.93;73.22;;;;;;;;;;8173608;28;20373;-72
2021/10/26 18:02:26;;;;;;;206.25;67.78;;;;;;;;;;8196745;28;20465;-70
2021/10/26 18:06:33;;;;;;;65.40;23.65;;;;;;;;;;8197343;28;20450;-70
2021/10/26 18:10:42;;;;;;;92.80;31.63;;;;;;;;;;8196374;28;20330;-69
2021/10/26 18:14:47;;;;;;;117.55;40.45;;;;;;;;;;8196611;28;20093;-70
2021/10/26 18:18:52;;;;;;;109.65;41.83;;;;;;;;;;8196041;28;20572;-69
2021/10/26 18:22:58;;;;;;;100.60;36.55;;;;;;;;;;8197535;28;20034;-69
2021/10/26 18:27:03;;;;;;;83.65;31.98;;;;;;;;;;8195085;28;20365;-71
2021/10/26 18:31:10;;;;;;;81.40;31.30;;;;;;;;;;8196244;28;20478;-69
2021/10/26 18:35:16;;;;;;;95.55;33.20;;;;;;;;;;8196876;28;20347;-70
2021/10/26 18:39:25;;;;;;;72.72;26.67;;;;;;;;;;8169566;28;20050;-68
2021/10/26 18:43:31;;;;;;;72.32;27.08;;;;;;;;;;8195492;28;20457;-69
2021/10/26 18:47:37;;;;;;;68.57;25.83;;;;;;;;;;8194210;28;20038;-70
2021/10/26 18:51:42;;;;;;;61.30;23.38;;;;;;;;;;8194765;28;20461;-71
2021/10/26 18:55:47;;;;;;;56.35;22.80;;;;;;;;;;8195828;28;20484;-69
2021/10/26 18:59:52;;;;;;;59.85;21.95;;;;;;;;;;8194952;28;20342;-70
2021/10/26 19:03:57;;;;;;;61.88;21.77;;;;;;;;;;8195428;28;20484;-70
2021/10/26 19:08:06;;;;;;;58.90;23.83;;;;;;;;;;8195083;28;20230;-70
2021/10/26 19:12:11;;;;;;;62.83;23.83;;;;;;;;;;8178749;28;20487;-70
2021/10/26 19:16:20;;;;;;;54.72;21.98;;;;;;;;;;8195248;28;20496;-70
2021/10/26 19:20:25;;;;;;;54.90;22.70;;;;;;;;;;8195990;28;20046;-69
2021/10/26 19:24:31;;;;;;;51.10;19.52;;;;;;;;;;8194315;28;20358;-70
2021/10/26 19:28:38;;;;;;;47.60;20.70;;;;;;;;;;8193559;28;20045;-70
2021/10/26 19:32:44;;;;;;;45.50;20.50;;;;;;;;;;8193574;28;20477;-70
2021/10/26 19:36:50;;;;;;;44.78;17.80;;;;;;;;;;8194657;28;20461;-71
2021/10/26 19:40:55;;;;;;;51.58;19.85;;;;;;;;;;8196532;28;20457;-70
2021/10/26 19:45:00;;;;;;;44.92;18.33;;;;;;;;;;8196956;28;20365;-69
2021/10/26 19:49:06;;;;;;;49.92;18.75;;;;;;;;;;8194210;28;20466;-70
2021/10/26 19:53:11;;;;;;;56.67;19.85;;;;;;;;;;8192101;28;20373;-70
2021/10/26 19:57:16;;;;;;;54.85;20.77;;;;;;;;;;8195272;28;20400;-71
2021/10/26 20:01:21;;;;;;;53.75;22.17;;;;;;;;;;8194243;28;20465;-70
2021/10/26 20:05:27;;;;;;;56.75;20.50;;;;;;;;;;8192520;28;20449;-71
2021/10/26 20:09:32;;;;;;;69.07;23.30;;;;;;;;;;8193397;28;20373;-70
2021/10/26 20:13:37;;;;;;;71.35;26.00;;;;;;;;;;8193401;28;20362;-71
2021/10/26 20:17:42;;;;;;;83.72;27.88;;;;;;;;;;8191293;28;20373;-70
2021/10/26 20:21:53;;;;;;;79.68;27.50;;;;;;;;;;8209155;28;20430;-70
2021/10/26 20:26:00;;;;;;;72.85;29.38;;;;;;;;;;8193536;28;20405;-71
2021/10/26 20:30:07;;;;;;;87.20;33.30;;;;;;;;;;8193629;28;20401;-70
2021/10/26 20:34:13;;;;;;;117.45;38.80;;;;;;;;;;8193655;28;20494;-70
2021/10/26 20:38:18;;;;;;;104.35;37.30;;;;;;;;;;8191138;28;20358;-69
2021/10/26 20:42:23;;;;;;;64.97;27.65;;;;;;;;;;8193021;28;20377;-69
2021/10/26 20:46:28;;;;;;;76.38;28.65;;;;;;;;;;8206886;28;20071;-70
2021/10/26 20:50:37;;;;;;;65.90;26.77;;;;;;;;;;8191376;28;20358;-70
2021/10/26 20:54:44;;;;;;;;;;;;;;;;;;8192059;28;20468;-69
2021/10/26 20:58:49;;;;;;;58.35;25.55;;;;;;;;;;8206375;28;20257;-71
2021/10/26 21:02:55;;;;;;;73.47;26.77;;;;;;;;;;8192680;28;20072;-70
2021/10/26 21:07:00;;;;;;;45.67;21.05;;;;;;;;;;8189520;28;20388;-71
2021/10/26 21:11:06;;;;;;;58.55;20.92;;;;;;;;;;8191222;28;20038;-70
2021/10/26 21:15:11;;;;;;;55.60;22.23;;;;;;;;;;8192068;28;20361;-69
2021/10/26 21:19:17;;;;;;;59.85;22.88;;;;;;;;;;8191484;28;20372;-71
2021/10/26 21:23:22;;;;;;;53.05;21.98;;;;;;;;;;8192194;28;20412;-72
2021/10/26 21:27:28;;;;;;;61.13;19.45;;;;;;;;;;8194443;28;20461;-70
2021/10/26 21:31:35;;;;;;;49.65;18.48;;;;;;;;;;8191866;28;20042;-70
2021/10/26 21:35:44;;;;;;;43.73;17.80;;;;;;;;;;8192594;28;20437;-70
2021/10/26 21:39:49;;;;;;;43.33;17.45;;;;;;;;;;8191533;28;20391;-71
2021/10/26 21:43:54;;;;;;;68.22;25.70;;;;;;;;;;8192209;28;20372;-70
2021/10/26 21:48:00;;;;;;;48.35;21.58;;;;;;;;;;8194799;28;20469;-70
2021/10/26 21:52:05;;;;;;;41.17;18.98;;;;;;;;;;8197496;28;20342;-69
2021/10/26 21:56:10;;;;;;;46.70;19.05;;;;;;;;;;8197301;28;20064;-70
2021/10/26 22:00:18;;;;;;;53.45;19.33;;;;;;;;;;8197237;28;20487;-71
2021/10/26 22:04:24;;;;;;;48.88;21.23;;;;;;;;;;8196113;28;20461;-71
2021/10/26 22:08:30;;;;;;;53.08;19.90;;;;;;;;;;8199308;28;20499;-70
2021/10/26 22:12:36;;;;;;;54.20;19.40;;;;;;;;;;8195651;28;20365;-69
2021/10/26 22:16:41;;;;;;;57.20;22.50;;;;;;;;;;8194736;28;20358;-70
2021/10/26 22:20:46;;;;;;;49.15;20.42;;;;;;;;;;8196180;28;20372;-70
2021/10/26 22:24:56;;;;;;;55.13;20.40;;;;;;;;;;8197007;28;20445;-71
2021/10/26 22:29:01;;;;;;;45.75;20.13;;;;;;;;;;8197716;28;20489;-70
2021/10/26 22:33:06;;;;;;;54.75;19.67;;;;;;;;;;8196876;28;20318;-69
2021/10/26 22:37:11;;;;;;;47.58;18.00;;;;;;;;;;8198319;28;20461;-72
2021/10/26 22:41:18;;;;;;;57.72;19.23;;;;;;;;;;8194975;28;20507;-70
2021/10/26 22:45:22;;;;;;;49.05;19.45;;;;;;;;;;8197171;28;20576;-70
2021/10/26 22:49:30;;;;;;;83.93;28.95;;;;;;;;;;8197772;28;20345;-70
2021/10/26 22:53:35;;;;;;;64.40;27.20;;;;;;;;;;8210743;28;20472;-70
2021/10/26 22:57:40;;;;;;;51.95;20.77;;;;;;;;;;8194378;28;20046;-70
2021/10/26 23:01:46;;;;;;;58.75;20.98;;;;;;;;;;8196001;28;20065;-70
2021/10/26 23:05:51;;;;;;;45.25;18.55;;;;;;;;;;8194051;28;20352;-70
2021/10/26 23:10:05;;;;;;;47.17;19.10;;;;;;;;;;8195564;28;20381;-70
2021/10/26 23:14:14;;;;;;;51.00;19.52;;;;;;;;;;8196780;28;20160;-70
2021/10/26 23:18:20;;;;;;;43.38;18.95;;;;;;;;;;8193617;28;20389;-72
2021/10/26 23:22:25;;;;;;;54.28;20.08;;;;;;;;;;8195340;28;20397;-70
2021/10/26 23:26:30;;;;;;;66.25;21.08;;;;;;;;;;8193541;28;20042;-70
2021/10/26 23:30:36;;;;;;;56.10;19.85;;;;;;;;;;8194370;28;20554;-70
2021/10/26 23:34:41;;;;;;;48.28;19.70;;;;;;;;;;8193971;28;20409;-71
2021/10/26 23:38:46;;;;;;;44.15;19.05;;;;;;;;;;8194802;28;20472;-70
2021/10/26 23:42:52;;;;;;;50.83;18.20;;;;;;;;;;8209065;28;20442;-71
2021/10/26 23:46:57;;;;;;;44.72;18.90;;;;;;;;;;8192664;28;20382;-71
2021/10/26 23:51:03;;;;;;;47.65;18.73;;;;;;;;;;8195014;28;20319;-69
2021/10/26 23:55:08;;;;;;;45.67;18.77;;;;;;;;;;8195493;28;20480;-70
2021/10/26 23:59:13;;;;;;;48.00;18.00;;;;;;;;;;8193545;28;20461;-70
